Time;durP1;ratioP1;P1;durP2;ratioP2;P2;SDS_P1;SDS_P2;PMS_P1;PMS_P2;Temp;Humidity;BMP_temperature;BMP_pressure;BME280_temperature;BME280_humidity;BME280_pressure;Samples;Min_cycle;Max_cycle;Signal;HPM_P1;HPM_P2
2024/01/10 00:01:44;;;;;;;5.82;4.38;;;17.40;34.80;;;;;;5149415;27;45379;-71
2024/01/10 00:04:10;;;;;;;6.80;4.85;;;17.40;34.80;;;;;;5150215;27;45310;-71
2024/01/10 00:06:37;;;;;;;7.93;4.70;;;17.40;34.80;;;;;;5150164;27;45315;-70
2024/01/10 00:09:04;;;;;;;7.03;4.60;;;17.40;34.90;;;;;;5149811;27;45305;-71
2024/01/10 00:11:32;;;;;;;7.68;5.15;;;17.40;34.90;;;;;;5150397;27;45366;-71
2024/01/10 00:13:59;;;;;;;6.05;4.80;;;17.40;34.90;;;;;;5150962;27;45396;-71
2024/01/10 00:16:26;;;;;;;5.55;4.25;;;17.40;34.90;;;;;;5150034;27;45303;-71
2024/01/10 00:18:53;;;;;;;7.45;4.93;;;17.40;34.90;;;;;;5149654;27;46397;-71
2024/01/10 00:21:20;;;;;;;8.20;4.80;;;17.40;34.90;;;;;;5149892;27;45172;-71
2024/01/10 00:23:46;;;;;;;6.15;4.45;;;17.40;34.90;;;;;;5150119;27;45274;-71
2024/01/10 00:26:13;;;;;;;6.00;4.57;;;17.30;35.50;;;;;;5150045;27;45308;-71
2024/01/10 00:28:41;;;;;;;6.85;4.97;;;17.30;34.90;;;;;;5150112;27;45473;-71
2024/01/10 00:31:08;;;;;;;7.78;4.70;;;17.30;34.90;;;;;;5149890;27;45316;-71
2024/01/10 00:33:35;;;;;;;9.05;5.43;;;17.30;35.00;;;;;;5150054;27;45299;-71
2024/01/10 00:36:03;;;;;;;5.90;4.25;;;17.30;35.00;;;;;;5149710;27;45385;-71
2024/01/10 00:38:29;;;;;;;6.38;4.28;;;17.30;35.00;;;;;;5149363;27;47957;-70
2024/01/10 00:40:57;;;;;;;7.93;4.78;;;17.30;34.90;;;;;;5147287;27;45354;-70
2024/01/10 00:43:23;;;;;;;5.95;4.38;;;17.30;34.90;;;;;;5149071;27;45257;-70
2024/01/10 00:45:52;;;;;;;7.97;4.90;;;17.20;34.90;;;;;;5148807;27;45179;-71
2024/01/10 00:48:18;;;;;;;8.05;5.25;;;17.20;34.90;;;;;;5149211;27;46385;-71
2024/01/10 00:50:45;;;;;;;6.70;4.88;;;17.20;34.90;;;;;;5149289;27;45356;-70
2024/01/10 00:53:13;;;;;;;5.55;4.35;;;17.20;34.90;;;;;;5149463;27;45228;-70
2024/01/10 00:55:39;;;;;;;7.13;5.18;;;17.20;34.90;;;;;;5149320;27;45239;-71
2024/01/10 00:58:06;;;;;;;7.10;4.53;;;17.20;35.00;;;;;;5149319;27;46298;-70
2024/01/10 01:00:33;;;;;;;6.70;5.20;;;17.20;34.90;;;;;;5150197;27;45288;-70
2024/01/10 01:03:01;;;;;;;6.13;4.45;;;17.20;34.90;;;;;;5149725;27;45389;-70
2024/01/10 01:05:28;;;;;;;7.22;4.50;;;17.20;34.90;;;;;;5149185;27;45263;-70
2024/01/10 01:07:55;;;;;;;5.72;4.35;;;17.20;34.90;;;;;;5148985;27;45407;-70
2024/01/10 01:10:22;;;;;;;6.85;4.60;;;17.20;34.90;;;;;;5149849;27;45268;-70
2024/01/10 01:12:48;;;;;;;6.57;4.75;;;17.10;34.90;;;;;;5150236;27;45380;-70
2024/01/10 01:15:15;;;;;;;6.82;4.78;;;17.10;34.90;;;;;;5150526;27;45329;-70
2024/01/10 01:17:42;;;;;;;7.10;4.35;;;17.10;34.90;;;;;;5149663;27;45413;-70
2024/01/10 01:20:10;;;;;;;6.03;4.90;;;17.10;35.00;;;;;;5149876;27;45189;-70
2024/01/10 01:22:37;;;;;;;6.20;4.97;;;17.10;34.90;;;;;;5148994;27;45415;-70
2024/01/10 01:25:05;;;;;;;6.82;5.03;;;17.10;34.90;;;;;;5149166;27;45403;-70
2024/01/10 01:27:31;;;;;;;8.23;4.47;;;17.10;34.90;;;;;;5147803;27;46717;-70
2024/01/10 01:29:58;;;;;;;6.47;4.60;;;17.10;34.90;;;;;;5149333;27;45452;-70
2024/01/10 01:32:25;;;;;;;8.35;5.03;;;17.10;34.90;;;;;;5149196;27;45284;-70
2024/01/10 01:34:55;;;;;;;8.02;4.80;;;17.10;34.80;;;;;;5148881;27;45309;-70
2024/01/10 01:37:23;;;;;;;7.05;4.90;;;17.10;34.90;;;;;;5148334;27;46405;-71
2024/01/10 01:39:50;;;;;;;7.93;4.60;;;17.00;34.90;;;;;;5148805;27;45234;-71
2024/01/10 01:42:17;;;;;;;6.20;4.68;;;17.00;34.90;;;;;;5148395;27;45325;-70
2024/01/10 01:44:44;;;;;;;8.32;5.22;;;17.00;34.90;;;;;;5149037;27;45456;-70
2024/01/10 01:47:11;;;;;;;9.13;5.00;;;17.00;34.90;;;;;;5148807;27;45378;-70
2024/01/10 01:49:38;;;;;;;8.18;5.03;;;17.10;34.90;;;;;;5149214;27;45316;-70
2024/01/10 01:52:06;;;;;;;6.43;4.72;;;17.10;34.90;;;;;;5149429;27;45256;-70
2024/01/10 01:54:35;;;;;;;8.05;5.03;;;17.10;34.90;;;;;;5152924;27;45194;-70
2024/01/10 01:57:01;;;;;;;7.63;4.82;;;17.00;34.90;;;;;;5152856;27;46445;-70
2024/01/10 01:59:29;;;;;;;8.00;5.15;;;17.00;34.90;;;;;;5152092;27;45393;-70
2024/01/10 02:01:56;;;;;;;6.53;4.57;;;17.00;34.90;;;;;;5152505;27;45328;-70
2024/01/10 02:04:23;;;;;;;7.47;5.45;;;16.90;34.90;;;;;;5153014;27;45336;-70
2024/01/10 02:06:49;;;;;;;6.72;4.88;;;16.90;35.00;;;;;;5151738;27;45428;-70
2024/01/10 02:09:16;;;;;;;6.68;4.85;;;17.00;34.90;;;;;;5151835;27;45338;-70
2024/01/10 02:11:44;;;;;;;6.65;5.03;;;16.90;34.90;;;;;;5152007;27;45471;-70
2024/01/10 02:14:11;;;;;;;9.50;5.40;;;16.90;34.90;;;;;;5152627;27;45432;-70
2024/01/10 02:16:38;;;;;;;6.88;4.93;;;16.90;34.90;;;;;;5152362;27;46762;-70
2024/01/10 02:19:19;;;;;;;7.53;5.30;;;16.90;34.90;;;;;;5152232;27;45409;-70
2024/01/10 02:21:45;;;;;;;6.85;5.40;;;16.90;34.90;;;;;;5151939;27;45389;-70
2024/01/10 02:24:12;;;;;;;6.78;4.80;;;16.90;35.00;;;;;;5151965;27;45248;-70
2024/01/10 02:26:41;;;;;;;6.03;5.05;;;16.90;35.00;;;;;;5151340;27;45270;-70
2024/01/10 02:29:07;;;;;;;9.93;5.10;;;16.90;35.00;;;;;;5151749;27;45384;-70
2024/01/10 02:31:34;;;;;;;8.27;5.40;;;16.90;35.00;;;;;;5152607;27;45268;-70
2024/01/10 02:34:01;;;;;;;7.00;4.90;;;16.90;35.00;;;;;;5151989;27;45421;-70
2024/01/10 02:36:28;;;;;;;7.75;5.13;;;16.90;34.90;;;;;;5151476;27;47332;-70
2024/01/10 02:38:55;;;;;;;11.30;5.40;;;16.90;34.90;;;;;;5151475;27;45292;-70
2024/01/10 02:41:22;;;;;;;6.78;4.93;;;16.90;34.90;;;;;;5151440;27;45337;-70
2024/01/10 02:43:50;;;;;;;8.65;5.03;;;16.80;34.90;;;;;;5152038;27;45602;-70
2024/01/10 02:46:17;;;;;;;6.47;4.80;;;16.80;35.00;;;;;;5151287;27;47280;-70
2024/01/10 02:48:43;;;;;;;6.53;4.80;;;16.80;34.90;;;;;;5151426;27;45303;-70
2024/01/10 02:51:10;;;;;;;6.60;4.70;;;16.90;35.00;;;;;;5151591;27;45329;-70
2024/01/10 02:53:37;;;;;;;8.07;5.35;;;16.90;34.90;;;;;;5151838;27;45298;-70
2024/01/10 02:56:05;;;;;;;6.50;4.95;;;16.90;35.00;;;;;;5151522;27;45428;-70
2024/01/10 02:58:32;;;;;;;8.15;5.75;;;16.90;34.90;;;;;;5150377;27;45269;-70
2024/01/10 03:01:01;;;;;;;8.50;5.63;;;16.80;34.90;;;;;;5151277;27;45206;-70
2024/01/10 03:03:28;;;;;;;6.97;4.97;;;16.80;34.90;;;;;;5151100;27;45472;-70
2024/01/10 03:05:54;;;;;;;7.53;5.20;;;16.80;34.90;;;;;;5151214;27;45347;-70
2024/01/10 03:08:21;;;;;;;8.50;5.40;;;16.80;34.90;;;;;;5151535;27;45311;-70
2024/01/10 03:10:48;;;;;;;6.85;4.82;;;16.80;34.90;;;;;;5151527;27;45315;-70
2024/01/10 03:13:15;;;;;;;6.95;5.03;;;16.80;34.90;;;;;;5151805;27;45306;-70
2024/01/10 03:15:42;;;;;;;8.73;5.47;;;16.80;34.90;;;;;;5151094;27;47364;-70
2024/01/10 03:18:10;;;;;;;6.70;4.80;;;16.80;34.90;;;;;;5150901;27;45373;-70
2024/01/10 03:20:37;;;;;;;10.07;5.22;;;16.80;34.90;;;;;;5151528;27;45289;-70
2024/01/10 03:23:04;;;;;;;6.72;4.93;;;16.80;34.90;;;;;;5151238;27;45174;-70
2024/01/10 03:25:30;;;;;;;7.28;5.13;;;16.80;34.90;;;;;;5150980;27;46381;-70
2024/01/10 03:27:57;;;;;;;7.68;5.03;;;16.80;35.00;;;;;;5150599;27;45377;-70
2024/01/10 03:30:24;;;;;;;5.30;4.72;;;16.70;34.90;;;;;;5150978;27;45368;-70
2024/01/10 03:32:51;;;;;;;8.30;5.40;;;16.70;34.90;;;;;;5151198;27;45120;-71
2024/01/10 03:35:19;;;;;;;8.43;5.03;;;16.80;34.90;;;;;;5150467;27;45595;-71
2024/01/10 03:37:46;;;;;;;8.45;5.20;;;16.70;34.90;;;;;;5150725;27;45319;-70
2024/01/10 03:40:13;;;;;;;6.25;4.70;;;16.80;34.90;;;;;;5149896;27;45371;-70
2024/01/10 03:42:40;;;;;;;6.22;5.38;;;16.70;34.80;;;;;;5150580;27;45406;-70
2024/01/10 03:45:07;;;;;;;9.68;5.35;;;16.70;34.80;;;;;;5150205;27;47559;-70
2024/01/10 03:47:34;;;;;;;7.32;5.10;;;16.70;34.80;;;;;;5150432;27;45227;-70
2024/01/10 03:50:00;;;;;;;8.23;5.30;;;16.70;34.90;;;;;;5150440;27;45256;-70
2024/01/10 03:52:29;;;;;;;6.88;4.40;;;16.70;34.90;;;;;;5151131;27;45487;-71
2024/01/10 03:54:55;;;;;;;7.43;4.88;;;16.70;34.90;;;;;;5150498;27;47012;-71
2024/01/10 03:57:22;;;;;;;8.27;5.20;;;16.70;34.90;;;;;;5150723;27;45195;-71
2024/01/10 03:59:49;;;;;;;9.70;5.97;;;16.70;34.90;;;;;;5150541;27;45194;-70
2024/01/10 04:02:16;;;;;;;7.90;5.25;;;16.70;34.90;;;;;;5150600;27;45431;-70
2024/01/10 04:04:43;;;;;;;8.43;5.20;;;16.70;34.90;;;;;;5150102;27;46391;-70
2024/01/10 04:07:09;;;;;;;6.75;5.03;;;16.70;34.90;;;;;;5150195;27;45453;-70
2024/01/10 04:09:38;;;;;;;7.40;5.40;;;16.70;34.90;;;;;;5150375;27;45264;-70
2024/01/10 04:12:05;;;;;;;5.85;4.40;;;16.70;34.80;;;;;;5150734;27;45395;-70
2024/01/10 04:14:32;;;;;;;8.52;5.20;;;16.70;34.80;;;;;;5149065;27;48390;-70
2024/01/10 04:16:59;;;;;;;9.30;5.57;;;16.80;34.80;;;;;;5149403;27;45439;-70
2024/01/10 04:19:25;;;;;;;8.60;4.88;;;16.80;34.60;;;;;;5149928;27;45418;-70
2024/01/10 04:21:52;;;;;;;6.72;4.97;;;16.90;34.50;;;;;;5150112;27;45366;-70
2024/01/10 04:24:19;;;;;;;7.13;4.97;;;17.00;34.40;;;;;;5148888;27;47319;-70
2024/01/10 04:26:47;;;;;;;8.43;4.97;;;17.10;34.20;;;;;;5149406;27;45464;-70
2024/01/10 04:29:14;;;;;;;6.90;5.50;;;17.20;34.10;;;;;;5149559;27;45451;-70
2024/01/10 04:31:41;;;;;;;7.53;5.43;;;17.30;33.90;;;;;;5149912;27;45288;-70
2024/01/10 04:34:08;;;;;;;8.38;5.53;;;17.40;33.80;;;;;;5149328;27;45542;-70
2024/01/10 04:36:35;;;;;;;9.07;5.18;;;17.50;33.60;;;;;;5149223;27;45299;-70
2024/01/10 04:39:02;;;;;;;7.32;5.35;;;17.60;33.40;;;;;;5149557;27;45379;-70
2024/01/10 04:41:29;;;;;;;6.93;4.85;;;17.70;33.20;;;;;;5149307;27;45563;-70
2024/01/10 04:43:57;;;;;;;8.00;4.88;;;17.80;33.10;;;;;;5149007;27;45555;-70
2024/01/10 04:46:24;;;;;;;8.25;4.82;;;17.90;33.00;;;;;;5149180;27;45333;-71
2024/01/10 04:48:51;;;;;;;7.35;5.10;;;17.90;32.90;;;;;;5148762;27;45320;-72
2024/01/10 04:51:18;;;;;;;7.30;5.22;;;18.00;32.90;;;;;;5149717;27;45363;-71
2024/01/10 04:53:45;;;;;;;8.00;5.32;;;18.00;32.70;;;;;;5149487;27;45444;-70
2024/01/10 04:56:11;;;;;;;7.68;5.55;;;18.10;32.70;;;;;;5149637;27;45392;-70
2024/01/10 04:58:38;;;;;;;6.68;4.80;;;18.10;32.60;;;;;;5149572;27;45310;-70
2024/01/10 05:01:06;;;;;;;9.20;5.32;;;18.10;32.50;;;;;;5150313;27;45357;-72
2024/01/10 05:03:33;;;;;;;7.97;4.95;;;18.20;32.50;;;;;;5149103;27;45339;-71
2024/01/10 05:06:00;;;;;;;7.85;5.15;;;18.20;32.50;;;;;;5149027;27;45288;-71
2024/01/10 05:08:27;;;;;;;7.82;5.10;;;18.20;32.40;;;;;;5149935;27;45186;-71
2024/01/10 05:10:54;;;;;;;7.82;5.00;;;18.30;32.40;;;;;;5149711;27;45239;-70
2024/01/10 05:13:21;;;;;;;7.45;5.65;;;18.30;32.30;;;;;;5149156;27;45454;-71
2024/01/10 05:15:48;;;;;;;8.00;5.30;;;18.30;32.20;;;;;;5149098;27;45368;-70
2024/01/10 05:18:16;;;;;;;7.43;5.00;;;18.40;32.20;;;;;;5149146;27;45452;-71
2024/01/10 05:20:43;;;;;;;6.60;4.93;;;18.40;32.10;;;;;;5149428;27;45304;-70
2024/01/10 05:23:10;;;;;;;9.45;5.28;;;18.40;32.10;;;;;;5148727;27;45476;-70
2024/01/10 05:25:37;;;;;;;8.20;4.95;;;18.50;32.10;;;;;;5148478;27;45423;-70
2024/01/10 05:28:04;;;;;;;9.80;5.78;;;18.50;32.10;;;;;;5149209;27;45389;-71
2024/01/10 05:30:31;;;;;;;8.30;5.28;;;18.50;32.00;;;;;;5149732;27;45437;-71
2024/01/10 05:32:58;;;;;;;6.80;5.13;;;18.50;32.00;;;;;;5149750;27;45468;-71
2024/01/10 05:35:26;;;;;;;7.53;5.00;;;18.50;32.00;;;;;;5148576;27;45377;-70
2024/01/10 05:37:54;;;;;;;8.38;5.07;;;18.60;31.90;;;;;;5148770;27;45384;-70
2024/01/10 05:40:21;;;;;;;7.00;4.90;;;18.60;31.90;;;;;;5148630;27;45460;-70
2024/01/10 05:42:49;;;;;;;8.20;5.43;;;18.60;31.80;;;;;;5148523;27;45487;-70
2024/01/10 05:45:17;;;;;;;11.98;4.97;;;18.70;31.80;;;;;;5148497;27;45308;-71
2024/01/10 05:47:44;;;;;;;7.15;5.03;;;18.70;31.80;;;;;;5148630;27;45356;-69
2024/01/10 05:50:11;;;;;;;9.60;5.55;;;18.70;31.70;;;;;;5148199;27;45449;-70
2024/01/10 05:52:39;;;;;;;8.90;5.10;;;18.70;31.70;;;;;;5148261;27;46973;-70
2024/01/10 05:55:08;;;;;;;7.05;5.18;;;18.80;31.70;;;;;;5148551;27;45376;-70
2024/01/10 05:57:35;;;;;;;8.48;5.47;;;18.80;31.60;;;;;;5148685;27;45341;-70
2024/01/10 06:00:03;;;;;;;7.68;5.40;;;18.80;31.60;;;;;;5148649;27;45335;-71
2024/01/10 06:02:29;;;;;;;8.35;5.38;;;18.80;31.60;;;;;;5148152;27;46606;-70
2024/01/10 06:04:56;;;;;;;8.00;5.22;;;18.80;31.60;;;;;;5148396;27;45266;-71
2024/01/10 06:07:23;;;;;;;8.85;5.32;;;18.80;31.60;;;;;;5148203;27;45436;-71
2024/01/10 06:09:51;;;;;;;9.90;5.57;;;18.80;31.50;;;;;;5148429;27;45426;-70
2024/01/10 06:12:18;;;;;;;8.80;5.22;;;18.90;31.50;;;;;;5148153;27;47265;-71
2024/01/10 06:14:46;;;;;;;7.90;5.25;;;18.90;32.10;;;;;;5148288;27;45172;-70
2024/01/10 06:17:13;;;;;;;7.32;4.95;;;18.90;31.40;;;;;;5148041;27;45429;-70
2024/01/10 06:19:40;;;;;;;9.52;6.00;;;18.90;32.00;;;;;;5148321;27;45425;-70
2024/01/10 06:22:06;;;;;;;12.55;5.55;;;19.00;31.40;;;;;;5147901;27;45429;-70
2024/01/10 06:24:33;;;;;;;8.88;5.78;;;19.00;31.30;;;;;;5147918;27;45259;-70
2024/01/10 06:27:01;;;;;;;9.93;5.53;;;19.00;31.30;;;;;;5152989;27;44680;-71
2024/01/10 06:29:28;;;;;;;9.95;5.85;;;19.00;31.30;;;;;;5149111;27;45340;-71
2024/01/10 06:31:56;;;;;;;9.48;5.95;;;19.00;31.30;;;;;;5150991;27;45369;-70
2024/01/10 06:34:23;;;;;;;8.30;5.55;;;19.00;31.20;;;;;;5147482;27;45280;-70
2024/01/10 06:36:50;;;;;;;11.30;6.75;;;19.00;31.20;;;;;;5148155;27;45391;-71
2024/01/10 06:39:19;;;;;;;8.55;5.82;;;19.00;31.00;;;;;;5150799;27;45398;-71
2024/01/10 06:41:46;;;;;;;12.63;6.18;;;19.00;31.10;;;;;;5151111;27;45337;-71
2024/01/10 06:44:16;;;;;;;8.20;5.78;;;19.10;31.20;;;;;;5151539;27;45426;-70
2024/01/10 06:46:44;;;;;;;9.57;5.57;;;19.10;31.10;;;;;;5151199;27;45468;-70
2024/01/10 06:49:11;;;;;;;9.23;6.13;;;19.10;31.10;;;;;;5151497;27;45356;-70
2024/01/10 06:51:37;;;;;;;8.63;5.35;;;19.10;31.10;;;;;;5151296;27;46322;-71
2024/01/10 06:54:05;;;;;;;10.15;6.05;;;19.10;31.10;;;;;;5151193;27;45417;-70
2024/01/10 06:56:32;;;;;;;9.70;5.47;;;19.10;31.10;;;;;;5151198;27;45371;-70
2024/01/10 06:58:59;;;;;;;8.23;5.63;;;19.10;31.70;;;;;;5151346;27;45384;-69
2024/01/10 07:01:27;;;;;;;10.25;5.35;;;19.10;31.10;;;;;;5151262;27;46967;-70
2024/01/10 07:03:55;;;;;;;10.20;5.28;;;19.10;31.10;;;;;;5150939;27;45389;-70
2024/01/10 07:06:22;;;;;;;9.43;5.40;;;19.20;31.10;;;;;;5151020;27;45289;-71
2024/01/10 07:08:49;;;;;;;7.78;5.43;;;19.20;31.10;;;;;;5151377;27;45630;-71
2024/01/10 07:11:16;;;;;;;10.27;5.03;;;19.20;31.00;;;;;;5150843;27;46667;-71
2024/01/10 07:13:43;;;;;;;8.75;5.38;;;19.20;31.00;;;;;;5150897;27;45502;-71
2024/01/10 07:16:10;;;;;;;6.97;5.30;;;19.20;30.90;;;;;;5151320;27;45252;-70
2024/01/10 07:18:38;;;;;;;9.20;5.05;;;19.20;30.90;;;;;;5147882;27;45283;-71
2024/01/10 07:21:05;;;;;;;8.88;5.97;;;19.20;30.90;;;;;;5150758;27;46659;-71
2024/01/10 07:23:33;;;;;;;7.68;5.47;;;19.30;30.90;;;;;;5150672;27;45489;-71
2024/01/10 07:26:00;;;;;;;10.07;5.72;;;19.30;30.90;;;;;;5151130;27;45178;-71
2024/01/10 07:28:27;;;;;;;10.05;5.90;;;19.30;30.90;;;;;;5151027;27;45386;-70
2024/01/10 07:30:54;;;;;;;9.38;5.53;;;19.30;30.90;;;;;;5150605;27;48568;-71
2024/01/10 07:33:21;;;;;;;12.10;5.50;;;19.30;30.90;;;;;;5150885;27;45336;-71
2024/01/10 07:35:49;;;;;;;8.32;5.15;;;19.30;30.80;;;;;;5150949;27;45482;-72
2024/01/10 07:38:16;;;;;;;10.80;5.75;;;19.30;30.70;;;;;;5150845;27;45446;-72
2024/01/10 07:40:43;;;;;;;9.35;5.47;;;19.30;30.90;;;;;;5149988;27;45289;-71
2024/01/10 07:43:11;;;;;;;10.93;5.72;;;19.30;31.00;;;;;;5147784;27;45412;-70
2024/01/10 07:45:38;;;;;;;11.20;5.88;;;19.30;31.10;;;;;;5149661;27;45290;-70
2024/01/10 07:48:06;;;;;;;10.32;6.22;;;19.40;31.10;;;;;;5150365;27;45433;-70
2024/01/10 07:50:33;;;;;;;11.25;6.18;;;19.40;31.10;;;;;;5149519;27;46102;-69
2024/01/10 07:53:01;;;;;;;10.55;6.60;;;19.30;30.90;;;;;;5149937;27;45338;-71
2024/01/10 07:55:29;;;;;;;12.13;5.90;;;19.30;31.30;;;;;;5149906;27;45395;-71
2024/01/10 07:57:56;;;;;;;13.88;6.22;;;19.40;31.50;;;;;;5149831;27;45180;-71
2024/01/10 08:00:23;;;;;;;19.20;6.57;;;19.40;31.60;;;;;;5149531;27;47558;-72
2024/01/10 08:02:50;;;;;;;14.00;6.38;;;19.40;32.80;;;;;;5138494;27;45515;-69
2024/01/10 08:05:17;;;;;;;10.38;5.82;;;19.60;32.40;;;;;;5150044;27;45282;-69
2024/01/10 08:07:44;;;;;;;11.55;5.97;;;19.60;32.20;;;;;;5143958;27;45417;-70
2024/01/10 08:10:13;;;;;;;11.95;6.03;;;19.60;32.20;;;;;;5149713;27;45418;-70
2024/01/10 08:12:41;;;;;;;9.05;5.70;;;19.60;32.10;;;;;;5149452;27;45358;-70
2024/01/10 08:15:08;;;;;;;10.95;6.22;;;19.60;32.00;;;;;;5149419;27;45339;-71
2024/01/10 08:17:37;;;;;;;9.07;5.85;;;19.60;31.80;;;;;;5149384;27;45264;-70
2024/01/10 08:20:06;;;;;;;10.63;6.05;;;19.60;31.80;;;;;;5149118;27;46576;-72
2024/01/10 08:22:32;;;;;;;10.40;5.78;;;19.60;31.60;;;;;;5149250;27;45437;-71
2024/01/10 08:24:59;;;;;;;8.15;5.72;;;19.60;31.60;;;;;;5150063;27;45444;-71
2024/01/10 08:27:28;;;;;;;8.95;5.35;;;19.60;31.70;;;;;;5149443;27;45424;-71
2024/01/10 08:29:55;;;;;;;10.95;6.45;;;19.60;31.70;;;;;;5141552;27;46649;-70
2024/01/10 08:32:22;;;;;;;8.20;5.85;;;19.60;31.70;;;;;;5149236;27;46285;-71
2024/01/10 08:34:49;;;;;;;9.63;6.40;;;19.60;31.60;;;;;;5149307;27;45353;-70
2024/01/10 08:37:17;;;;;;;8.27;6.40;;;19.60;31.50;;;;;;5149122;27;45260;-70
2024/01/10 08:39:44;;;;;;;10.02;5.82;;;19.60;31.20;;;;;;5148322;27;46376;-68
2024/01/10 08:42:11;;;;;;;11.10;6.32;;;19.60;31.50;;;;;;5151780;27;45356;-68
2024/01/10 08:44:39;;;;;;;11.00;6.10;;;19.60;31.50;;;;;;5149310;27;45452;-69
2024/01/10 08:47:07;;;;;;;10.30;5.97;;;19.60;32.00;;;;;;5145680;27;45459;-69
2024/01/10 08:49:34;;;;;;;9.73;6.63;;;19.60;32.10;;;;;;5148640;27;45462;-67
2024/01/10 08:52:01;;;;;;;12.90;7.20;;;19.60;32.20;;;;;;5148453;27;45510;-67
2024/01/10 08:54:28;;;;;;;21.33;7.03;;;19.60;32.40;;;;;;5148700;27;45322;-69
2024/01/10 08:56:54;;;;;;;9.20;7.03;;;19.60;32.30;;;;;;5149151;27;45431;-68
2024/01/10 08:59:21;;;;;;;11.35;6.45;;;19.50;32.40;;;;;;5147419;27;48622;-68
2024/01/10 09:01:49;;;;;;;14.88;6.50;;;19.50;32.20;;;;;;5147243;27;45259;-68
2024/01/10 09:04:16;;;;;;;14.55;6.43;;;19.40;32.30;;;;;;5149047;27;45625;-69
2024/01/10 09:06:44;;;;;;;7.70;6.38;;;19.40;32.40;;;;;;5148703;27;45353;-70
2024/01/10 09:09:12;;;;;;;14.93;6.18;;;19.30;32.40;;;;;;5147983;27;47849;-68
2024/01/10 09:11:39;;;;;;;13.27;6.28;;;19.30;32.40;;;;;;5147987;27;45331;-69
2024/01/10 09:14:08;;;;;;;11.32;6.40;;;19.20;32.60;;;;;;5148376;27;45320;-68
2024/01/10 09:16:35;;;;;;;12.20;6.32;;;19.10;32.60;;;;;;5148775;27;45401;-68
2024/01/10 09:19:04;;;;;;;10.40;5.53;;;19.00;32.70;;;;;;5144517;27;46336;-68
2024/01/10 09:21:30;;;;;;;17.85;6.57;;;19.00;32.90;;;;;;5146883;27;45460;-67
2024/01/10 09:23:57;;;;;;;9.57;6.15;;;18.90;33.20;;;;;;5148188;27;45470;-68
2024/01/10 09:26:24;;;;;;;17.48;8.07;;;18.80;33.20;;;;;;5148814;27;45331;-70
2024/01/10 09:28:51;;;;;;;16.35;9.50;;;18.70;32.30;;;;;;5148240;27;45325;-69
2024/01/10 09:31:18;;;;;;;21.27;8.77;;;18.60;31.90;;;;;;5146706;27;45474;-69
2024/01/10 09:33:45;;;;;;;11.18;7.60;;;18.50;31.60;;;;;;5148020;27;45318;-69
2024/01/10 09:36:14;;;;;;;13.13;8.13;;;18.50;31.90;;;;;;5147861;27;45364;-69
2024/01/10 09:38:41;;;;;;;17.92;8.35;;;18.60;32.00;;;;;;5147886;27;45584;-68
2024/01/10 09:41:08;;;;;;;10.55;6.95;;;18.80;32.00;;;;;;5147117;27;45198;-68
2024/01/10 09:43:34;;;;;;;10.38;6.85;;;18.90;32.50;;;;;;5147580;27;45325;-67
2024/01/10 09:46:01;;;;;;;11.48;6.40;;;19.00;31.80;;;;;;5147928;27;45412;-68
2024/01/10 09:48:29;;;;;;;11.82;7.65;;;19.00;31.80;;;;;;5147761;27;45416;-68
2024/01/10 09:50:55;;;;;;;12.63;6.82;;;19.10;31.70;;;;;;5148631;27;45292;-68
2024/01/10 09:53:24;;;;;;;11.50;7.55;;;19.20;31.70;;;;;;5152941;27;45174;-69
2024/01/10 09:55:51;;;;;;;11.90;7.00;;;19.30;31.70;;;;;;5148397;27;45475;-68
2024/01/10 09:58:18;;;;;;;10.50;6.85;;;19.30;31.60;;;;;;5147193;27;45624;-69
2024/01/10 10:00:45;;;;;;;12.63;6.88;;;19.30;31.60;;;;;;5147588;27;45449;-69
2024/01/10 10:03:12;;;;;;;10.48;7.10;;;19.40;31.50;;;;;;5147150;27;45398;-69
2024/01/10 10:05:39;;;;;;;10.13;6.60;;;19.40;31.50;;;;;;5147791;27;45462;-69
2024/01/10 10:08:09;;;;;;;13.70;7.18;;;19.50;31.50;;;;;;5147383;27;45332;-69
2024/01/10 10:10:42;;;;;;;13.43;6.80;;;19.50;31.40;;;;;;5147447;27;45280;-69
2024/01/10 10:13:11;;;;;;;14.55;7.65;;;19.60;31.30;;;;;;5140832;27;45478;-69
2024/01/10 10:15:39;;;;;;;9.68;6.63;;;19.60;31.00;;;;;;5151846;27;45270;-69
2024/01/10 10:18:05;;;;;;;10.77;6.43;;;19.60;31.10;;;;;;5147865;27;46187;-70
2024/01/10 10:20:35;;;;;;;11.90;7.15;;;19.70;31.20;;;;;;5151539;27;45352;-69
2024/01/10 10:23:03;;;;;;;12.68;7.63;;;19.70;31.10;;;;;;5151680;27;45184;-68
2024/01/10 10:25:31;;;;;;;10.00;6.97;;;19.70;31.20;;;;;;5151809;27;45508;-69
2024/01/10 10:28:00;;;;;;;9.32;6.95;;;19.70;31.20;;;;;;5151115;27;46472;-68
2024/01/10 10:30:27;;;;;;;9.35;6.65;;;19.60;31.30;;;;;;5151046;27;45215;-68
2024/01/10 10:32:54;;;;;;;14.30;8.10;;;19.60;31.30;;;;;;5151443;27;45248;-68
2024/01/10 10:35:21;;;;;;;11.27;6.30;;;19.60;31.30;;;;;;5151949;27;45348;-68
2024/01/10 10:37:49;;;;;;;10.80;7.28;;;19.50;31.30;;;;;;5151788;27;45420;-68
2024/01/10 10:40:16;;;;;;;12.60;7.35;;;19.60;31.40;;;;;;5151599;27;45194;-69
2024/01/10 10:42:45;;;;;;;10.15;7.15;;;19.50;31.50;;;;;;5151596;27;45190;-69
2024/01/10 10:45:15;;;;;;;10.32;6.72;;;19.50;31.50;;;;;;5151873;27;45363;-69
2024/01/10 10:47:45;;;;;;;10.77;7.05;;;19.40;31.50;;;;;;5151006;27;45385;-69
2024/01/10 10:50:14;;;;;;;13.35;7.25;;;19.40;31.70;;;;;;5151166;27;45364;-69
2024/01/10 10:52:43;;;;;;;11.40;7.22;;;19.40;31.70;;;;;;5151387;27;45287;-68
2024/01/10 10:55:10;;;;;;;13.02;7.20;;;19.40;31.70;;;;;;5151505;27;45343;-68
2024/01/10 10:57:37;;;;;;;9.85;6.93;;;19.40;31.90;;;;;;5150975;27;46637;-68
2024/01/10 11:00:07;;;;;;;11.00;7.15;;;19.40;32.00;;;;;;5151018;27;45338;-68
2024/01/10 11:02:35;;;;;;;11.85;7.57;;;19.30;32.00;;;;;;5150989;27;45325;-68
2024/01/10 11:05:03;;;;;;;10.18;6.93;;;19.30;32.10;;;;;;5149943;27;45513;-67
2024/01/10 11:07:30;;;;;;;11.10;6.93;;;19.30;32.20;;;;;;5150677;27;46426;-68
2024/01/10 11:09:58;;;;;;;10.55;7.00;;;19.20;32.30;;;;;;5150816;27;45330;-69
2024/01/10 11:12:31;;;;;;;14.13;7.32;;;19.20;32.40;;;;;;5151212;27;45332;-69
2024/01/10 11:15:09;;;;;;;12.88;6.95;;;19.10;32.40;;;;;;5151259;27;45429;-69
2024/01/10 11:18:06;;;;;;;10.73;6.88;;;19.10;32.40;;;;;;5150971;27;46528;-70
2024/01/10 11:20:45;;;;;;;12.32;7.47;;;19.20;32.30;;;;;;5148587;27;45404;-76
2024/01/10 11:23:22;;;;;;;11.50;7.55;;;19.30;32.10;;;;;;5150762;27;45325;-76
2024/01/10 11:25:49;;;;;;;8.73;6.97;;;19.50;31.90;;;;;;5151063;27;45244;-76
2024/01/10 11:28:16;;;;;;;14.85;7.20;;;19.60;31.70;;;;;;5150218;27;46624;-74
2024/01/10 11:30:50;;;;;;;9.93;6.72;;;19.70;31.60;;;;;;5150291;27;45408;-75
2024/01/10 11:33:22;;;;;;;8.70;6.75;;;19.80;31.40;;;;;;5150273;27;45525;-75
2024/01/10 11:36:10;;;;;;;17.92;7.05;;;19.90;31.30;;;;;;5150864;27;45376;-74
2024/01/10 11:38:44;;;;;;;12.57;7.43;;;20.00;31.20;;;;;;5149801;27;46419;-75
2024/01/10 11:41:16;;;;;;;14.30;8.02;;;20.00;31.00;;;;;;5150385;27;45247;-72
2024/01/10 11:43:42;;;;;;;16.92;7.05;;;20.00;31.10;;;;;;5150550;27;45311;-69
2024/01/10 11:46:11;;;;;;;11.82;6.85;;;20.10;31.20;;;;;;5147021;27;45117;-70
2024/01/10 11:48:40;;;;;;;11.13;7.30;;;20.20;31.10;;;;;;5149088;27;46761;-70
2024/01/10 11:51:08;;;;;;;11.52;7.35;;;20.30;31.10;;;;;;5148895;27;45399;-71
2024/01/10 11:53:42;;;;;;;13.00;7.07;;;20.30;31.10;;;;;;5150092;27;45320;-70
2024/01/10 11:56:15;;;;;;;11.65;6.97;;;20.30;31.00;;;;;;5150105;27;45184;-70
2024/01/10 11:58:54;;;;;;;8.32;6.57;;;20.40;31.00;;;;;;5149715;27;46246;-71
2024/01/10 12:01:21;;;;;;;10.52;6.78;;;20.30;31.00;;;;;;5148575;27;45321;-71
2024/01/10 12:03:48;;;;;;;11.60;6.75;;;20.30;31.00;;;;;;5149643;27;45563;-69
2024/01/10 12:06:22;;;;;;;9.27;6.60;;;20.30;31.00;;;;;;5150105;27;45219;-69
2024/01/10 12:08:50;;;;;;;10.55;6.57;;;20.40;31.10;;;;;;5149300;27;45586;-69
2024/01/10 12:11:16;;;;;;;9.68;7.20;;;20.30;31.00;;;;;;5149707;27;45374;-69
2024/01/10 12:13:43;;;;;;;14.63;7.00;;;20.30;31.10;;;;;;5149755;27;45293;-69
2024/01/10 12:16:11;;;;;;;9.05;6.10;;;20.30;31.20;;;;;;5149881;27;45357;-69
2024/01/10 12:18:38;;;;;;;11.63;6.88;;;20.20;31.20;;;;;;5149202;27;46690;-71
2024/01/10 12:21:05;;;;;;;12.05;7.00;;;20.10;31.30;;;;;;5149254;27;45420;-70
2024/01/10 12:23:35;;;;;;;7.88;6.75;;;20.10;31.40;;;;;;5149311;27;45164;-71
2024/01/10 12:26:02;;;;;;;11.43;7.47;;;20.00;31.20;;;;;;5149642;27;45128;-69
2024/01/10 12:28:29;;;;;;;9.32;6.32;;;20.10;31.30;;;;;;5149309;27;46433;-70
2024/01/10 12:30:56;;;;;;;10.55;6.72;;;20.10;31.30;;;;;;5149319;27;45327;-70
2024/01/10 12:33:24;;;;;;;11.02;6.70;;;20.10;31.30;;;;;;5148980;27;45308;-70
2024/01/10 12:36:05;;;;;;;11.52;7.35;;;20.10;31.30;;;;;;5148036;27;45435;-70
2024/01/10 12:38:33;;;;;;;8.50;5.93;;;20.10;31.40;;;;;;5149074;27;46587;-70
2024/01/10 12:41:00;;;;;;;9.55;6.30;;;20.10;31.40;;;;;;5148719;27;45271;-71
2024/01/10 12:43:27;;;;;;;10.02;6.82;;;20.00;31.40;;;;;;5149171;27;45312;-71
2024/01/10 12:46:04;;;;;;;12.52;6.90;;;19.90;31.50;;;;;;5148924;27;45552;-70